Saquarema, Brazil
Current Conditions -  °F | °C
As of 2:00 PM on Wednesday 26 Nov 2014 (Local Time) from SBES Reporting Station
Overcast Overcast  
Wind Chill: 86°   Ceiling: 10000
Heat Index: 90°   Visibility: 6mi
Dew Point: 70°   Wind: 13mph
Humidity: 58%   Direction: 50°NE
Pressure: 29.74"   Gusts: NA
Location:  22.93°S, 42.53°W
Report Text: SBES 261600Z 05011KT 9999 FEW020 OVC100 30/21 Q1007
Loading
Personal Weather Stations






























Interactive Weather Map New forecast layout! Learn more

10-Day Weather Forecast

Advertisements
Track Severe Weather on mobile